sensor_id;sensor_type;location;lat;lon;timestamp;pressure;altitude;pressure_sealevel;temperature
8533;BMP280;4304;53.876;10.662;2023-07-20T00:02:14;101141.22;;;13.57
8533;BMP280;4304;53.876;10.662;2023-07-20T00:04:40;101155.75;;;13.61
8533;BMP280;4304;53.876;10.662;2023-07-20T00:07:05;101153.97;;;13.62
8533;BMP280;4304;53.876;10.662;2023-07-20T00:09:30;101149.34;;;13.65
8533;BMP280;4304;53.876;10.662;2023-07-20T00:11:56;101143.41;;;13.63
8533;BMP280;4304;53.876;10.662;2023-07-20T00:14:21;101131.28;;;13.62
8533;BMP280;4304;53.876;10.662;2023-07-20T00:16:49;101131.06;;;13.65
8533;BMP280;4304;53.876;10.662;2023-07-20T00:19:21;101126.88;;;13.63
8533;BMP280;4304;53.876;10.662;2023-07-20T00:21:46;101124.56;;;13.70
8533;BMP280;4304;53.876;10.662;2023-07-20T00:24:12;101132.16;;;13.73
8533;BMP280;4304;53.876;10.662;2023-07-20T00:26:37;101125.03;;;13.75
8533;BMP280;4304;53.876;10.662;2023-07-20T00:29:03;101128.13;;;13.69
8533;BMP280;4304;53.876;10.662;2023-07-20T00:31:29;101122.31;;;13.77
8533;BMP280;4304;53.876;10.662;2023-07-20T00:33:54;101127.66;;;13.75
8533;BMP280;4304;53.876;10.662;2023-07-20T00:36:20;101121.50;;;13.76
8533;BMP280;4304;53.876;10.662;2023-07-20T00:38:45;101123.28;;;13.76
8533;BMP280;4304;53.876;10.662;2023-07-20T00:41:10;101129.94;;;13.80
8533;BMP280;4304;53.876;10.662;2023-07-20T00:43:36;101123.88;;;13.79
8533;BMP280;4304;53.876;10.662;2023-07-20T00:46:01;101118.56;;;13.81
8533;BMP280;4304;53.876;10.662;2023-07-20T00:48:29;101112.59;;;13.79
8533;BMP280;4304;53.876;10.662;2023-07-20T00:50:54;101117.47;;;13.83
8533;BMP280;4304;53.876;10.662;2023-07-20T00:53:20;101115.19;;;13.79
8533;BMP280;4304;53.876;10.662;2023-07-20T00:55:46;101115.94;;;13.81
8533;BMP280;4304;53.876;10.662;2023-07-20T00:58:11;101114.16;;;13.81
8533;BMP280;4304;53.876;10.662;2023-07-20T01:00:36;101113.66;;;13.76
8533;BMP280;4304;53.876;10.662;2023-07-20T01:03:02;101129.34;;;13.76
8533;BMP280;4304;53.876;10.662;2023-07-20T01:05:37;101114.00;;;13.72
8533;BMP280;4304;53.876;10.662;2023-07-20T01:08:18;101115.44;;;13.76
8533;BMP280;4304;53.876;10.662;2023-07-20T01:10:59;101102.25;;;13.77
8533;BMP280;4304;53.876;10.662;2023-07-20T01:13:25;101114.88;;;13.83
8533;BMP280;4304;53.876;10.662;2023-07-20T01:16:00;101109.84;;;13.80
8533;BMP280;4304;53.876;10.662;2023-07-20T01:18:26;101120.19;;;13.82
8533;BMP280;4304;53.876;10.662;2023-07-20T01:20:53;101121.16;;;13.81
8533;BMP280;4304;53.876;10.662;2023-07-20T01:31:23;101122.91;;;13.80
8533;BMP280;4304;53.876;10.662;2023-07-20T01:33:52;101122.91;;;13.80
8533;BMP280;4304;53.876;10.662;2023-07-20T01:36:22;101115.31;;;13.77
8533;BMP280;4304;53.876;10.662;2023-07-20T01:38:47;101111.66;;;13.80
8533;BMP280;4304;53.876;10.662;2023-07-20T01:41:14;101119.50;;;13.80
8533;BMP280;4304;53.876;10.662;2023-07-20T01:43:40;101115.31;;;13.77
8533;BMP280;4304;53.876;10.662;2023-07-20T01:46:05;101106.88;;;13.74
8533;BMP280;4304;53.876;10.662;2023-07-20T01:48:31;101119.72;;;13.77
8533;BMP280;4304;53.876;10.662;2023-07-20T01:50:56;101118.88;;;13.76
8533;BMP280;4304;53.876;10.662;2023-07-20T01:53:22;101122.31;;;13.77
8533;BMP280;4304;53.876;10.662;2023-07-20T01:55:48;101116.16;;;13.78
8533;BMP280;4304;53.876;10.662;2023-07-20T01:58:13;101112.19;;;13.72
8533;BMP280;4304;53.876;10.662;2023-07-20T02:00:38;101117.09;;;13.77
8533;BMP280;4304;53.876;10.662;2023-07-20T02:03:04;101117.31;;;13.74
8533;BMP280;4304;53.876;10.662;2023-07-20T02:05:29;101122.31;;;13.77
8533;BMP280;4304;53.876;10.662;2023-07-20T02:07:55;101124.81;;;13.78
8533;BMP280;4304;53.876;10.662;2023-07-20T02:10:20;101125.75;;;13.77
8533;BMP280;4304;53.876;10.662;2023-07-20T02:12:45;101118.88;;;13.76
8533;BMP280;4304;53.876;10.662;2023-07-20T02:15:11;101128.38;;;13.77
8533;BMP280;4304;53.876;10.662;2023-07-20T02:17:38;101117.59;;;13.82
8533;BMP280;4304;53.876;10.662;2023-07-20T02:20:05;101127.31;;;13.80
8533;BMP280;4304;53.876;10.662;2023-07-20T02:22:33;101120.31;;;13.80
8533;BMP280;4304;53.876;10.662;2023-07-20T02:24:59;101122.91;;;13.80
8533;BMP280;4304;53.876;10.662;2023-07-20T02:27:24;101127.44;;;13.78
8533;BMP280;4304;53.876;10.662;2023-07-20T02:29:49;101122.00;;;13.81
8533;BMP280;4304;53.876;10.662;2023-07-20T02:32:15;101117.09;;;13.77
8533;BMP280;4304;53.876;10.662;2023-07-20T02:34:41;101118.66;;;13.79
8533;BMP280;4304;53.876;10.662;2023-07-20T02:37:06;101106.88;;;13.74
8533;BMP280;4304;53.876;10.662;2023-07-20T02:39:31;101118.78;;;13.78
8533;BMP280;4304;53.876;10.662;2023-07-20T02:41:56;101116.16;;;13.78
8533;BMP280;4304;53.876;10.662;2023-07-20T02:44:22;101115.31;;;13.77
8533;BMP280;4304;53.876;10.662;2023-07-20T02:46:48;101119.81;;;13.75
8533;BMP280;4304;53.876;10.662;2023-07-20T02:49:15;101126.59;;;13.78
8533;BMP280;4304;53.876;10.662;2023-07-20T02:51:40;101122.31;;;13.77
8533;BMP280;4304;53.876;10.662;2023-07-20T02:54:06;101115.44;;;13.76
8533;BMP280;4304;53.876;10.662;2023-07-20T02:56:31;101129.81;;;13.81
8533;BMP280;4304;53.876;10.662;2023-07-20T02:58:57;101118.78;;;13.78
8533;BMP280;4304;53.876;10.662;2023-07-20T03:01:24;101118.78;;;13.78
8533;BMP280;4304;53.876;10.662;2023-07-20T03:03:49;101121.59;;;13.75
8533;BMP280;4304;53.876;10.662;2023-07-20T03:06:15;101130.03;;;13.78
8533;BMP280;4304;53.876;10.662;2023-07-20T03:08:44;101138.69;;;13.79
8533;BMP280;4304;53.876;10.662;2023-07-20T03:11:15;101145.59;;;13.80
8533;BMP280;4304;53.876;10.662;2023-07-20T03:13:42;101135.03;;;13.81
8533;BMP280;4304;53.876;10.662;2023-07-20T03:16:08;101135.75;;;13.83
8533;BMP280;4304;53.876;10.662;2023-07-20T03:18:37;101143.81;;;13.80
8533;BMP280;4304;53.876;10.662;2023-07-20T03:21:03;101148.09;;;13.81
8533;BMP280;4304;53.876;10.662;2023-07-20T03:23:28;101148.22;;;13.80
8533;BMP280;4304;53.876;10.662;2023-07-20T03:25:54;101133.38;;;13.80
8533;BMP280;4304;53.876;10.662;2023-07-20T03:28:20;101126.28;;;13.82
8533;BMP280;4304;53.876;10.662;2023-07-20T03:30:45;101139.34;;;13.82
8533;BMP280;4304;53.876;10.662;2023-07-20T03:33:11;101140.06;;;13.84
8533;BMP280;4304;53.876;10.662;2023-07-20T03:35:37;101139.09;;;13.85
8533;BMP280;4304;53.876;10.662;2023-07-20T03:38:02;101133.97;;;13.84
8533;BMP280;4304;53.876;10.662;2023-07-20T03:40:28;101151.22;;;13.86
8533;BMP280;4304;53.876;10.662;2023-07-20T03:42:53;101152.91;;;13.87
8533;BMP280;4304;53.876;10.662;2023-07-20T03:45:18;101145.06;;;13.87
8533;BMP280;4304;53.876;10.662;2023-07-20T03:47:44;101137.94;;;13.89
8533;BMP280;4304;53.876;10.662;2023-07-20T03:50:10;101136.13;;;13.90
8533;BMP280;4304;53.876;10.662;2023-07-20T03:52:36;101140.53;;;13.89
8533;BMP280;4304;53.876;10.662;2023-07-20T03:55:01;101141.25;;;13.91
8533;BMP280;4304;53.876;10.662;2023-07-20T03:57:26;101141.03;;;13.94
8533;BMP280;4304;53.876;10.662;2023-07-20T03:59:52;101122.16;;;13.91
8533;BMP280;4304;53.876;10.662;2023-07-20T04:02:18;101138.41;;;13.94
8533;BMP280;4304;53.876;10.662;2023-07-20T04:04:43;101143.28;;;13.99
8533;BMP280;4304;53.876;10.662;2023-07-20T04:07:08;101146.75;;;13.99
8533;BMP280;4304;53.876;10.662;2023-07-20T04:09:34;101146.53;;;14.02
8533;BMP280;4304;53.876;10.662;2023-07-20T04:11:59;101140.56;;;14.00
8533;BMP280;4304;53.876;10.662;2023-07-20T04:14:25;101138.69;;;14.02
8533;BMP280;4304;53.876;10.662;2023-07-20T04:16:50;101151.69;;;14.14
8533;BMP280;4304;53.876;10.662;2023-07-20T04:19:16;101148.72;;;14.19
8533;BMP280;4304;53.876;10.662;2023-07-20T04:21:43;101157.75;;;14.26
8533;BMP280;4304;53.876;10.662;2023-07-20T04:24:08;101152.56;;;14.37
8533;BMP280;4304;53.876;10.662;2023-07-20T04:26:34;101157.22;;;14.55
8533;BMP280;4304;53.876;10.662;2023-07-20T04:28:59;101148.91;;;14.83
8533;BMP280;4304;53.876;10.662;2023-07-20T04:31:25;101155.78;;;15.16
8533;BMP280;4304;53.876;10.662;2023-07-20T04:33:50;101159.97;;;15.19
8533;BMP280;4304;53.876;10.662;2023-07-20T04:36:16;101156.47;;;15.40
8533;BMP280;4304;53.876;10.662;2023-07-20T04:38:45;101159.69;;;15.95
8533;BMP280;4304;53.876;10.662;2023-07-20T04:41:10;101155.06;;;16.39
8533;BMP280;4304;53.876;10.662;2023-07-20T04:43:41;101158.66;;;16.67
8533;BMP280;4304;53.876;10.662;2023-07-20T04:46:07;101164.63;;;17.18
8533;BMP280;4304;53.876;10.662;2023-07-20T04:48:32;101159.56;;;17.26
8533;BMP280;4304;53.876;10.662;2023-07-20T04:50:57;101161.72;;;17.60
8533;BMP280;4304;53.876;10.662;2023-07-20T04:53:23;101161.03;;;17.86
8533;BMP280;4304;53.876;10.662;2023-07-20T04:55:49;101154.38;;;18.10
8533;BMP280;4304;53.876;10.662;2023-07-20T04:58:20;101147.47;;;17.91
8533;BMP280;4304;53.876;10.662;2023-07-20T05:00:46;101155.34;;;18.28
8533;BMP280;4304;53.876;10.662;2023-07-20T05:03:11;101158.47;;;18.50
8533;BMP280;4304;53.876;10.662;2023-07-20T05:05:36;101148.84;;;18.68
8533;BMP280;4304;53.876;10.662;2023-07-20T05:08:04;101158.44;;;19.05
8533;BMP280;4304;53.876;10.662;2023-07-20T05:10:29;101151.81;;;18.92
8533;BMP280;4304;53.876;10.662;2023-07-20T05:12:54;101153.06;;;18.88
8533;BMP280;4304;53.876;10.662;2023-07-20T05:15:20;101153.31;;;19.04
8533;BMP280;4304;53.876;10.662;2023-07-20T05:17:45;101148.72;;;18.96
8533;BMP280;4304;53.876;10.662;2023-07-20T05:20:10;101156.66;;;19.23
8533;BMP280;4304;53.876;10.662;2023-07-20T05:22:38;101144.16;;;19.25
8533;BMP280;4304;53.876;10.662;2023-07-20T05:25:06;101154.19;;;19.39
8533;BMP280;4304;53.876;10.662;2023-07-20T05:27:32;101154.72;;;19.42
8533;BMP280;4304;53.876;10.662;2023-07-20T05:29:57;101169.81;;;19.67
8533;BMP280;4304;53.876;10.662;2023-07-20T05:32:23;101154.78;;;19.94
8533;BMP280;4304;53.876;10.662;2023-07-20T05:34:52;101153.38;;;19.38
8533;BMP280;4304;53.876;10.662;2023-07-20T05:37:17;101159.56;;;19.81
8533;BMP280;4304;53.876;10.662;2023-07-20T05:39:43;101160.50;;;19.90
8533;BMP280;4304;53.876;10.662;2023-07-20T05:42:08;101173.28;;;20.19
8533;BMP280;4304;53.876;10.662;2023-07-20T05:44:33;101165.75;;;20.24
8533;BMP280;4304;53.876;10.662;2023-07-20T05:46:59;101171.59;;;20.61
8533;BMP280;4304;53.876;10.662;2023-07-20T05:49:24;101158.94;;;20.39
8533;BMP280;4304;53.876;10.662;2023-07-20T05:51:50;101145.19;;;20.11
8533;BMP280;4304;53.876;10.662;2023-07-20T05:54:15;101178.50;;;20.54
8533;BMP280;4304;53.876;10.662;2023-07-20T05:56:40;101172.38;;;20.54
8533;BMP280;4304;53.876;10.662;2023-07-20T05:59:08;101172.09;;;20.82
8533;BMP280;4304;53.876;10.662;2023-07-20T06:01:34;101170.78;;;20.86
8533;BMP280;4304;53.876;10.662;2023-07-20T06:03:59;101172.91;;;20.82
8533;BMP280;4304;53.876;10.662;2023-07-20T06:06:24;101184.78;;;21.11
8533;BMP280;4304;53.876;10.662;2023-07-20T06:08:50;101171.22;;;21.06
8533;BMP280;4304;53.876;10.662;2023-07-20T06:11:16;101184.97;;;21.26
8533;BMP280;4304;53.876;10.662;2023-07-20T06:13:41;101174.13;;;21.37
8533;BMP280;4304;53.876;10.662;2023-07-20T06:16:08;101155.78;;;20.94
8533;BMP280;4304;53.876;10.662;2023-07-20T06:18:33;101192.72;;;21.52
8533;BMP280;4304;53.876;10.662;2023-07-20T06:20:59;101176.03;;;21.60
8533;BMP280;4304;53.876;10.662;2023-07-20T06:23:24;101176.06;;;21.27
8533;BMP280;4304;53.876;10.662;2023-07-20T06:25:49;101157.50;;;21.44
8533;BMP280;4304;53.876;10.662;2023-07-20T06:28:15;101189.75;;;21.63
8533;BMP280;4304;53.876;10.662;2023-07-20T06:30:40;101200.91;;;21.98
8533;BMP280;4304;53.876;10.662;2023-07-20T06:33:06;101194.53;;;21.60
8533;BMP280;4304;53.876;10.662;2023-07-20T06:35:33;101176.56;;;21.30
8533;BMP280;4304;53.876;10.662;2023-07-20T06:37:59;101178.13;;;21.48
8533;BMP280;4304;53.876;10.662;2023-07-20T06:40:25;101184.75;;;21.44
8533;BMP280;4304;53.876;10.662;2023-07-20T06:42:51;101193.41;;;21.29
8533;BMP280;4304;53.876;10.662;2023-07-20T06:45:16;101181.31;;;20.78
8533;BMP280;4304;53.876;10.662;2023-07-20T06:47:42;101185.81;;;20.85
8533;BMP280;4304;53.876;10.662;2023-07-20T06:50:08;101208.59;;;21.52
8533;BMP280;4304;53.876;10.662;2023-07-20T06:52:34;101181.13;;;21.53
8533;BMP280;4304;53.876;10.662;2023-07-20T06:54:59;101212.66;;;21.39
8533;BMP280;4304;53.876;10.662;2023-07-20T06:57:25;101194.50;;;21.44
8533;BMP280;4304;53.876;10.662;2023-07-20T06:59:50;101168.91;;;21.11
8533;BMP280;4304;53.876;10.662;2023-07-20T07:02:16;101228.19;;;21.99
8533;BMP280;4304;53.876;10.662;2023-07-20T07:04:42;101218.59;;;22.61
8533;BMP280;4304;53.876;10.662;2023-07-20T07:07:07;101213.31;;;22.61
8533;BMP280;4304;53.876;10.662;2023-07-20T07:09:32;101219.06;;;22.80
8533;BMP280;4304;53.876;10.662;2023-07-20T07:11:58;101220.91;;;21.85
8533;BMP280;4304;53.876;10.662;2023-07-20T07:14:23;101202.09;;;21.06
8533;BMP280;4304;53.876;10.662;2023-07-20T07:16:49;101176.41;;;19.98
8533;BMP280;4304;53.876;10.662;2023-07-20T07:19:14;101171.72;;;20.09
8533;BMP280;4304;53.876;10.662;2023-07-20T07:21:39;101172.28;;;20.63
8533;BMP280;4304;53.876;10.662;2023-07-20T07:24:05;101242.41;;;21.90
8533;BMP280;4304;53.876;10.662;2023-07-20T07:26:35;101205.03;;;22.01
8533;BMP280;4304;53.876;10.662;2023-07-20T07:29:01;101217.03;;;21.56
8533;BMP280;4304;53.876;10.662;2023-07-20T07:31:26;101242.72;;;22.03
8533;BMP280;4304;53.876;10.662;2023-07-20T07:33:51;101224.88;;;22.13
8533;BMP280;4304;53.876;10.662;2023-07-20T07:36:17;101240.94;;;22.74
8533;BMP280;4304;53.876;10.662;2023-07-20T07:38:42;101203.34;;;21.76
8533;BMP280;4304;53.876;10.662;2023-07-20T07:41:08;101178.31;;;20.73
8533;BMP280;4304;53.876;10.662;2023-07-20T07:43:33;101160.81;;;19.87
8533;BMP280;4304;53.876;10.662;2023-07-20T07:46:00;101146.44;;;19.37
8533;BMP280;4304;53.876;10.662;2023-07-20T07:48:27;101153.81;;;19.95
8533;BMP280;4304;53.876;10.662;2023-07-20T07:50:53;101176.84;;;20.78
8533;BMP280;4304;53.876;10.662;2023-07-20T07:53:19;101209.81;;;21.89
8533;BMP280;4304;53.876;10.662;2023-07-20T07:55:47;101230.06;;;22.54
8533;BMP280;4304;53.876;10.662;2023-07-20T07:58:12;101251.41;;;22.29
8533;BMP280;4304;53.876;10.662;2023-07-20T08:00:38;101235.19;;;21.51
8533;BMP280;4304;53.876;10.662;2023-07-20T08:03:06;101183.69;;;20.89
8533;BMP280;4304;53.876;10.662;2023-07-20T08:05:31;101151.53;;;20.00
8533;BMP280;4304;53.876;10.662;2023-07-20T08:07:56;101170.13;;;19.64
8533;BMP280;4304;53.876;10.662;2023-07-20T08:10:22;101194.31;;;20.29
8533;BMP280;4304;53.876;10.662;2023-07-20T08:12:47;101195.63;;;21.00
8533;BMP280;4304;53.876;10.662;2023-07-20T08:15:13;101228.81;;;21.93
8533;BMP280;4304;53.876;10.662;2023-07-20T08:17:40;101209.31;;;22.18
8533;BMP280;4304;53.876;10.662;2023-07-20T08:20:06;101265.63;;;22.43
8533;BMP280;4304;53.876;10.662;2023-07-20T08:22:31;101283.88;;;22.62
8533;BMP280;4304;53.876;10.662;2023-07-20T08:24:57;101230.88;;;22.30
8533;BMP280;4304;53.876;10.662;2023-07-20T08:27:22;101286.66;;;22.29
8533;BMP280;4304;53.876;10.662;2023-07-20T08:29:47;101221.97;;;21.51
8533;BMP280;4304;53.876;10.662;2023-07-20T08:32:13;101169.56;;;20.72
8533;BMP280;4304;53.876;10.662;2023-07-20T08:34:39;101218.72;;;20.65
8533;BMP280;4304;53.876;10.662;2023-07-20T08:37:05;101228.78;;;21.28
8533;BMP280;4304;53.876;10.662;2023-07-20T08:39:31;101238.75;;;21.91
8533;BMP280;4304;53.876;10.662;2023-07-20T08:41:59;101229.25;;;22.30
8533;BMP280;4304;53.876;10.662;2023-07-20T08:44:29;101238.47;;;22.65
8533;BMP280;4304;53.876;10.662;2023-07-20T08:46:55;101246.41;;;22.81
8533;BMP280;4304;53.876;10.662;2023-07-20T08:49:20;101244.41;;;22.99
8533;BMP280;4304;53.876;10.662;2023-07-20T08:51:46;101209.69;;;22.30
8533;BMP280;4304;53.876;10.662;2023-07-20T08:54:14;101234.78;;;22.90
8533;BMP280;4304;53.876;10.662;2023-07-20T08:56:40;101236.91;;;23.48
8533;BMP280;4304;53.876;10.662;2023-07-20T08:59:08;101225.38;;;23.33
8533;BMP280;4304;53.876;10.662;2023-07-20T09:01:35;101230.22;;;22.44
8533;BMP280;4304;53.876;10.662;2023-07-20T09:04:01;101231.97;;;21.81
8533;BMP280;4304;53.876;10.662;2023-07-20T09:06:27;101103.41;;;20.06
8533;BMP280;4304;53.876;10.662;2023-07-20T09:08:52;101160.69;;;19.44
8533;BMP280;4304;53.876;10.662;2023-07-20T09:11:17;101178.56;;;18.87
8533;BMP280;4304;53.876;10.662;2023-07-20T09:13:43;101161.28;;;18.40
8533;BMP280;4304;53.876;10.662;2023-07-20T09:16:09;101171.63;;;18.50
8533;BMP280;4304;53.876;10.662;2023-07-20T09:18:38;101175.66;;;19.27
8533;BMP280;4304;53.876;10.662;2023-07-20T09:21:05;101160.19;;;20.10
8533;BMP280;4304;53.876;10.662;2023-07-20T09:23:32;101166.03;;;20.97
8533;BMP280;4304;53.876;10.662;2023-07-20T09:25:58;101173.47;;;20.94
8533;BMP280;4304;53.876;10.662;2023-07-20T09:28:24;101174.41;;;20.85
8533;BMP280;4304;53.876;10.662;2023-07-20T09:30:54;101158.91;;;20.90
8533;BMP280;4304;53.876;10.662;2023-07-20T09:33:22;101179.22;;;21.30
8533;BMP280;4304;53.876;10.662;2023-07-20T09:35:48;101169.91;;;21.59
8533;BMP280;4304;53.876;10.662;2023-07-20T09:38:14;101160.19;;;22.15
8533;BMP280;4304;53.876;10.662;2023-07-20T09:40:40;101232.59;;;21.75
8533;BMP280;4304;53.876;10.662;2023-07-20T09:43:09;101196.22;;;21.20
8533;BMP280;4304;53.876;10.662;2023-07-20T09:45:39;101178.44;;;20.71
8533;BMP280;4304;53.876;10.662;2023-07-20T09:48:06;101186.16;;;19.53
8533;BMP280;4304;53.876;10.662;2023-07-20T09:50:51;101186.59;;;18.50
8533;BMP280;4304;53.876;10.662;2023-07-20T09:53:17;101185.97;;;18.20
8533;BMP280;4304;53.876;10.662;2023-07-20T09:55:46;101186.38;;;17.87
8533;BMP280;4304;53.876;10.662;2023-07-20T09:58:16;101183.84;;;18.33
8533;BMP280;4304;53.876;10.662;2023-07-20T10:00:43;101175.84;;;19.16
8533;BMP280;4304;53.876;10.662;2023-07-20T10:03:11;101178.91;;;19.55
8533;BMP280;4304;53.876;10.662;2023-07-20T10:05:41;101174.06;;;19.95
8533;BMP280;4304;53.876;10.662;2023-07-20T10:08:11;101173.25;;;19.94
8533;BMP280;4304;53.876;10.662;2023-07-20T10:10:38;101175.16;;;19.58
8533;BMP280;4304;53.876;10.662;2023-07-20T10:13:05;101173.56;;;19.47
8533;BMP280;4304;53.876;10.662;2023-07-20T10:15:37;101188.84;;;19.44
8533;BMP280;4304;53.876;10.662;2023-07-20T10:18:17;101183.16;;;19.22
8533;BMP280;4304;53.876;10.662;2023-07-20T10:20:42;101176.03;;;19.05
8533;BMP280;4304;53.876;10.662;2023-07-20T10:23:09;101187.50;;;18.77
8533;BMP280;4304;53.876;10.662;2023-07-20T10:25:36;101175.84;;;18.70
8533;BMP280;4304;53.876;10.662;2023-07-20T10:28:06;101183.88;;;19.14
8533;BMP280;4304;53.876;10.662;2023-07-20T10:30:35;101171.78;;;19.65
8533;BMP280;4304;53.876;10.662;2023-07-20T10:33:02;101159.72;;;20.14
8533;BMP280;4304;53.876;10.662;2023-07-20T10:35:28;101156.69;;;20.77
8533;BMP280;4304;53.876;10.662;2023-07-20T10:37:59;101194.03;;;20.82
8533;BMP280;4304;53.876;10.662;2023-07-20T10:40:33;101156.75;;;21.26
8533;BMP280;4304;53.876;10.662;2023-07-20T10:43:07;101157.03;;;21.72
8533;BMP280;4304;53.876;10.662;2023-07-20T10:45:47;101163.00;;;21.25
8533;BMP280;4304;53.876;10.662;2023-07-20T10:48:21;101179.53;;;20.61
8533;BMP280;4304;53.876;10.662;2023-07-20T10:51:10;101185.56;;;19.59
8533;BMP280;4304;53.876;10.662;2023-07-20T10:53:36;101190.47;;;18.91
8533;BMP280;4304;53.876;10.662;2023-07-20T10:56:11;101187.47;;;18.22
8533;BMP280;4304;53.876;10.662;2023-07-20T10:58:39;101186.06;;;17.99
8533;BMP280;4304;53.876;10.662;2023-07-20T11:01:05;101190.25;;;17.74
8533;BMP280;4304;53.876;10.662;2023-07-20T11:03:37;101184.69;;;17.67
8533;BMP280;4304;53.876;10.662;2023-07-20T11:06:31;101188.84;;;17.70
8533;BMP280;4304;53.876;10.662;2023-07-20T11:09:10;101185.16;;;18.65
8533;BMP280;4304;53.876;10.662;2023-07-20T11:11:38;101187.81;;;19.27
8533;BMP280;4304;53.876;10.662;2023-07-20T11:14:06;101170.22;;;19.72
8533;BMP280;4304;53.876;10.662;2023-07-20T11:16:43;101169.16;;;20.42
8533;BMP280;4304;53.876;10.662;2023-07-20T11:21:41;101182.63;;;20.56
8533;BMP280;4304;53.876;10.662;2023-07-20T11:24:07;101177.66;;;20.11
8533;BMP280;4304;53.876;10.662;2023-07-20T11:26:44;101185.19;;;19.71
8533;BMP280;4304;53.876;10.662;2023-07-20T11:29:11;101219.59;;;19.53
8533;BMP280;4304;53.876;10.662;2023-07-20T11:31:41;101215.13;;;19.00
8533;BMP280;4304;53.876;10.662;2023-07-20T11:34:17;101210.28;;;18.95
8533;BMP280;4304;53.876;10.662;2023-07-20T11:36:48;101204.56;;;18.64
8533;BMP280;4304;53.876;10.662;2023-07-20T11:39:15;101212.22;;;18.48
8533;BMP280;4304;53.876;10.662;2023-07-20T11:41:48;101202.28;;;18.33
8533;BMP280;4304;53.876;10.662;2023-07-20T11:44:16;101224.72;;;18.27
8533;BMP280;4304;53.876;10.662;2023-07-20T11:46:43;101218.09;;;18.14
8533;BMP280;4304;53.876;10.662;2023-07-20T11:49:10;101221.41;;;18.25
8533;BMP280;4304;53.876;10.662;2023-07-20T11:51:36;101228.56;;;18.42
8533;BMP280;4304;53.876;10.662;2023-07-20T11:54:03;101204.72;;;18.62
8533;BMP280;4304;53.876;10.662;2023-07-20T11:56:29;101215.31;;;19.25
8533;BMP280;4304;53.876;10.662;2023-07-20T11:58:55;101197.50;;;19.80
8533;BMP280;4304;53.876;10.662;2023-07-20T12:01:23;101210.50;;;20.51
8533;BMP280;4304;53.876;10.662;2023-07-20T12:03:48;101221.75;;;20.78
8533;BMP280;4304;53.876;10.662;2023-07-20T12:06:15;101219.31;;;21.51
8533;BMP280;4304;53.876;10.662;2023-07-20T12:08:44;101211.44;;;21.75
8533;BMP280;4304;53.876;10.662;2023-07-20T12:11:10;101222.88;;;21.75
8533;BMP280;4304;53.876;10.662;2023-07-20T12:13:43;101251.94;;;21.34
8533;BMP280;4304;53.876;10.662;2023-07-20T12:16:16;101216.34;;;21.13
8533;BMP280;4304;53.876;10.662;2023-07-20T12:18:43;101240.84;;;21.31
8533;BMP280;4304;53.876;10.662;2023-07-20T12:21:09;101262.31;;;21.53
8533;BMP280;4304;53.876;10.662;2023-07-20T12:23:39;101238.25;;;21.87
8533;BMP280;4304;53.876;10.662;2023-07-20T12:26:08;101233.59;;;21.74
8533;BMP280;4304;53.876;10.662;2023-07-20T12:28:40;101324.78;;;21.95
8533;BMP280;4304;53.876;10.662;2023-07-20T12:31:09;101325.59;;;21.87
8533;BMP280;4304;53.876;10.662;2023-07-20T12:33:36;101289.53;;;21.45
8533;BMP280;4304;53.876;10.662;2023-07-20T12:36:01;101303.84;;;21.68
8533;BMP280;4304;53.876;10.662;2023-07-20T12:38:27;101255.19;;;21.53
8533;BMP280;4304;53.876;10.662;2023-07-20T12:40:53;101250.81;;;21.78
8533;BMP280;4304;53.876;10.662;2023-07-20T12:43:21;101276.16;;;21.96
8533;BMP280;4304;53.876;10.662;2023-07-20T12:45:47;101249.06;;;22.26
8533;BMP280;4304;53.876;10.662;2023-07-20T12:48:12;101266.97;;;22.24
8533;BMP280;4304;53.876;10.662;2023-07-20T12:50:38;101268.94;;;22.53
8533;BMP280;4304;53.876;10.662;2023-07-20T12:53:03;101218.94;;;22.58
8533;BMP280;4304;53.876;10.662;2023-07-20T12:55:29;101253.03;;;22.69
8533;BMP280;4304;53.876;10.662;2023-07-20T12:57:54;101252.16;;;23.08
8533;BMP280;4304;53.876;10.662;2023-07-20T13:00:20;101233.00;;;23.36
8533;BMP280;4304;53.876;10.662;2023-07-20T13:02:48;101274.56;;;22.58
8533;BMP280;4304;53.876;10.662;2023-07-20T13:05:13;101244.44;;;22.35
8533;BMP280;4304;53.876;10.662;2023-07-20T13:07:39;101213.53;;;21.55
8533;BMP280;4304;53.876;10.662;2023-07-20T13:10:05;101221.41;;;21.40
8533;BMP280;4304;53.876;10.662;2023-07-20T13:12:32;101212.44;;;20.99
8533;BMP280;4304;53.876;10.662;2023-07-20T13:14:58;101176.00;;;20.53
8533;BMP280;4304;53.876;10.662;2023-07-20T13:17:27;101208.38;;;20.37
8533;BMP280;4304;53.876;10.662;2023-07-20T13:19:54;101206.84;;;20.27
8533;BMP280;4304;53.876;10.662;2023-07-20T13:22:19;101219.44;;;20.15
8533;BMP280;4304;53.876;10.662;2023-07-20T13:24:45;101260.22;;;19.86
8533;BMP280;4304;53.876;10.662;2023-07-20T13:27:15;101257.44;;;19.61
8533;BMP280;4304;53.876;10.662;2023-07-20T13:29:40;101230.91;;;19.36
8533;BMP280;4304;53.876;10.662;2023-07-20T13:32:07;101237.47;;;19.32
8533;BMP280;4304;53.876;10.662;2023-07-20T13:34:32;101252.72;;;19.38
8533;BMP280;4304;53.876;10.662;2023-07-20T13:37:00;101246.41;;;19.48
8533;BMP280;4304;53.876;10.662;2023-07-20T13:39:25;101224.78;;;19.45
8533;BMP280;4304;53.876;10.662;2023-07-20T13:41:52;101238.88;;;19.53
8533;BMP280;4304;53.876;10.662;2023-07-20T13:44:17;101227.91;;;19.58
8533;BMP280;4304;53.876;10.662;2023-07-20T13:46:43;101223.97;;;19.62
8533;BMP280;4304;53.876;10.662;2023-07-20T13:49:08;101212.94;;;19.75
8533;BMP280;4304;53.876;10.662;2023-07-20T13:51:34;101231.25;;;19.77
8533;BMP280;4304;53.876;10.662;2023-07-20T13:53:59;101218.28;;;19.66
8533;BMP280;4304;53.876;10.662;2023-07-20T13:56:25;101227.91;;;19.75
8533;BMP280;4304;53.876;10.662;2023-07-20T13:58:50;101232.25;;;19.49
8533;BMP280;4304;53.876;10.662;2023-07-20T14:01:16;101217.59;;;19.37
8533;BMP280;4304;53.876;10.662;2023-07-20T14:03:43;101224.00;;;19.08
8533;BMP280;4304;53.876;10.662;2023-07-20T14:06:08;101226.41;;;18.83
8533;BMP280;4304;53.876;10.662;2023-07-20T14:08:34;101216.66;;;18.47
8533;BMP280;4304;53.876;10.662;2023-07-20T14:10:59;101223.91;;;18.36
8533;BMP280;4304;53.876;10.662;2023-07-20T14:13:25;101233.31;;;18.20
8533;BMP280;4304;53.876;10.662;2023-07-20T14:15:50;101225.53;;;17.99
8533;BMP280;4304;53.876;10.662;2023-07-20T14:18:15;101226.50;;;17.98